Time;durP1;ratioP1;P1;durP2;ratioP2;P2;SDS_P1;SDS_P2;PMS_P1;PMS_P2;Temp;Humidity;BMP_temperature;BMP_pressure;BME280_temperature;BME280_humidity;BME280_pressure;Samples;Min_cycle;Max_cycle;Signal;HPM_P1;HPM_P2
2022/05/18 00:00:36;;;;;;;7.80;1.45;;;;;;;;;;5072043;28;20549;-65
2022/05/18 00:03:07;;;;;;;6.97;1.10;;;;;;;;;;5072151;28;20564;-65
2022/05/18 00:05:34;;;;;;;8.45;1.45;;;;;;;;;;5071981;28;20029;-65
2022/05/18 00:08:01;;;;;;;6.82;1.42;;;;;;;;;;5071716;28;20474;-65
2022/05/18 00:10:27;;;;;;;6.60;1.40;;;;;;;;;;5072021;28;20037;-65
2022/05/18 00:12:53;;;;;;;5.38;1.27;;;;;;;;;;5072065;28;20036;-65
2022/05/18 00:15:21;;;;;;;4.10;1.13;;;;;;;;;;5072054;28;20033;-65
2022/05/18 00:17:48;;;;;;;7.85;1.10;;;;;;;;;;5071600;28;20016;-65
2022/05/18 00:20:14;;;;;;;6.40;1.17;;;;;;;;;;5071992;28;20028;-65
2022/05/18 00:22:48;;;;;;;4.70;1.02;;;;;;;;;;5071648;28;20017;-65
2022/05/18 00:25:16;;;;;;;3.53;1.15;;;;;;;;;;5072287;28;20431;-65
2022/05/18 00:27:42;;;;;;;6.95;1.30;;;;;;;;;;5071842;28;20020;-65
2022/05/18 00:30:09;;;;;;;3.67;1.27;;;;;;;;;;5071979;28;20446;-65
2022/05/18 00:32:35;;;;;;;6.40;1.85;;;;;;;;;;5071790;28;20484;-65
2022/05/18 00:35:02;;;;;;;10.07;1.30;;;;;;;;;;5072102;28;20403;-65
2022/05/18 00:37:28;;;;;;;3.85;1.42;;;;;;;;;;5071548;28;20021;-65
2022/05/18 00:39:54;;;;;;;2.78;1.08;;;;;;;;;;5072194;28;20020;-65
2022/05/18 00:42:21;;;;;;;7.10;1.42;;;;;;;;;;5071708;28;20102;-65
2022/05/18 00:44:47;;;;;;;3.47;1.15;;;;;;;;;;5071554;28;20032;-65
2022/05/18 00:47:14;;;;;;;2.70;1.10;;;;;;;;;;5071807;28;20017;-65
2022/05/18 00:49:41;;;;;;;5.40;1.35;;;;;;;;;;5071627;28;20540;-65
2022/05/18 00:52:08;;;;;;;5.10;1.10;;;;;;;;;;5071433;28;20028;-65
2022/05/18 00:54:35;;;;;;;3.53;1.38;;;;;;;;;;5071563;28;20107;-65
2022/05/18 00:57:04;;;;;;;2.70;1.00;;;;;;;;;;5071464;28;20052;-65
2022/05/18 00:59:31;;;;;;;3.13;1.20;;;;;;;;;;5071661;28;20040;-65
2022/05/18 01:01:59;;;;;;;4.28;1.20;;;;;;;;;;5071806;28;20034;-65
2022/05/18 01:04:26;;;;;;;1.55;1.02;;;;;;;;;;5071144;28;20033;-65
2022/05/18 01:07:01;;;;;;;2.17;1.10;;;;;;;;;;5071686;28;20029;-65
2022/05/18 01:09:35;;;;;;;4.95;0.90;;;;;;;;;;5071392;28;20024;-65
2022/05/18 01:12:02;;;;;;;4.15;1.20;;;;;;;;;;5070584;28;20035;-65
2022/05/18 01:14:44;;;;;;;3.75;1.00;;;;;;;;;;5071538;28;20060;-65
2022/05/18 01:17:11;;;;;;;7.50;1.35;;;;;;;;;;5071588;28;20035;-65
2022/05/18 01:19:39;;;;;;;4.57;1.00;;;;;;;;;;5070976;28;20051;-65
2022/05/18 01:22:10;;;;;;;4.68;1.23;;;;;;;;;;5071594;28;20111;-65
2022/05/18 01:24:59;;;;;;;4.97;1.40;;;;;;;;;;5071337;28;20036;-65
2022/05/18 01:27:26;;;;;;;4.95;1.70;;;;;;;;;;5009094;28;20056;-65
2022/05/18 01:29:53;;;;;;;5.45;1.92;;;;;;;;;;5012035;28;20069;-65
2022/05/18 01:32:20;;;;;;;4.93;1.38;;;;;;;;;;5013084;28;20117;-65
2022/05/18 01:34:46;;;;;;;4.93;1.38;;;;;;;;;;5012633;28;20092;-65
2022/05/18 01:37:14;;;;;;;5.95;1.40;;;;;;;;;;5013148;28;20038;-65
2022/05/18 01:39:44;;;;;;;3.55;1.40;;;;;;;;;;5012662;28;20053;-65
2022/05/18 01:42:11;;;;;;;3.97;0.90;;;;;;;;;;5012942;28;20034;-65
2022/05/18 01:44:38;;;;;;;6.65;1.60;;;;;;;;;;5012736;28;20489;-65
2022/05/18 01:47:05;;;;;;;3.03;1.10;;;;;;;;;;5012753;28;20030;-65
2022/05/18 01:49:32;;;;;;;6.68;1.40;;;;;;;;;;5012381;28;20434;-65
2022/05/18 01:51:59;;;;;;;6.13;1.27;;;;;;;;;;5012813;28;20053;-65
2022/05/18 01:54:25;;;;;;;5.00;1.10;;;;;;;;;;5012717;28;20038;-65
2022/05/18 01:56:51;;;;;;;6.85;1.50;;;;;;;;;;5012302;28;20054;-65
2022/05/18 01:59:17;;;;;;;2.72;1.17;;;;;;;;;;5012739;28;20088;-65
2022/05/18 02:01:44;;;;;;;4.25;1.08;;;;;;;;;;5012309;28;20068;-65
2022/05/18 02:04:10;;;;;;;4.47;1.20;;;;;;;;;;5037390;28;20072;-65
2022/05/18 02:06:36;;;;;;;6.18;1.17;;;;;;;;;;5074144;28;20452;-65
2022/05/18 02:09:04;;;;;;;10.30;1.45;;;;;;;;;;5074348;28;20546;-65
2022/05/18 02:11:32;;;;;;;2.60;1.10;;;;;;;;;;5074069;28;20116;-64
2022/05/18 02:13:58;;;;;;;3.88;1.40;;;;;;;;;;5074176;28;20092;-65
2022/05/18 02:16:24;;;;;;;4.35;1.05;;;;;;;;;;5074169;28;20026;-65
2022/05/18 02:18:50;;;;;;;4.47;1.40;;;;;;;;;;5073560;28;20035;-65
2022/05/18 02:21:17;;;;;;;3.67;0.95;;;;;;;;;;5074119;28;20111;-65
2022/05/18 02:23:44;;;;;;;3.20;1.30;;;;;;;;;;5073792;28;20077;-65
2022/05/18 02:26:19;;;;;;;7.05;1.45;;;;;;;;;;5073999;28;20112;-65
2022/05/18 02:28:46;;;;;;;3.13;1.00;;;;;;;;;;5073567;28;20068;-65
2022/05/18 02:31:12;;;;;;;4.38;1.48;;;;;;;;;;5073975;28;20059;-65
2022/05/18 02:33:39;;;;;;;9.73;1.73;;;;;;;;;;5073299;28;20032;-65
2022/05/18 02:36:07;;;;;;;3.42;1.50;;;;;;;;;;5073598;28;20024;-65
2022/05/18 02:38:33;;;;;;;6.65;1.65;;;;;;;;;;5073794;28;20068;-65
2022/05/18 02:41:00;;;;;;;6.95;1.52;;;;;;;;;;5073432;28;20017;-65
2022/05/18 02:43:26;;;;;;;5.72;2.03;;;;;;;;;;5073571;28;20047;-65
2022/05/18 02:46:04;;;;;;;7.22;1.75;;;;;;;;;;5073445;28;20032;-65
2022/05/18 02:48:31;;;;;;;15.30;1.60;;;;;;;;;;5073356;28;20036;-65
2022/05/18 02:50:57;;;;;;;9.77;1.73;;;;;;;;;;5073391;28;20036;-65
2022/05/18 02:53:23;;;;;;;9.13;1.75;;;;;;;;;;5073476;28;20032;-65
2022/05/18 02:56:07;;;;;;;8.40;1.98;;;;;;;;;;5072914;28;20068;-65
2022/05/18 02:58:42;;;;;;;6.00;1.60;;;;;;;;;;5073410;28;20032;-65
2022/05/18 03:01:12;;;;;;;8.57;1.85;;;;;;;;;;5072964;28;20043;-65
2022/05/18 03:03:39;;;;;;;7.25;1.30;;;;;;;;;;5073284;28;20041;-64
2022/05/18 03:06:06;;;;;;;11.35;3.33;;;;;;;;;;5071704;28;20366;-65
2022/05/18 03:08:34;;;;;;;6.47;1.40;;;;;;;;;;5073256;28;20028;-65
2022/05/18 03:11:01;;;;;;;7.85;1.58;;;;;;;;;;5071663;28;20029;-65
2022/05/18 03:13:28;;;;;;;4.63;1.20;;;;;;;;;;5072993;28;20395;-65
2022/05/18 03:15:54;;;;;;;5.32;1.95;;;;;;;;;;5072412;28;20111;-65
2022/05/18 03:18:20;;;;;;;7.63;2.83;;;;;;;;;;5072913;28;20062;-65
2022/05/18 03:23:35;;;;;;;7.40;2.50;;;;;;;;;;5072652;28;20519;-65
2022/05/18 03:26:01;;;;;;;16.17;2.45;;;;;;;;;;5072645;28;20036;-65
2022/05/18 03:28:27;;;;;;;11.27;3.13;;;;;;;;;;5072650;28;20074;-65
2022/05/18 03:30:55;;;;;;;12.15;2.50;;;;;;;;;;5071994;28;20119;-65
2022/05/18 03:33:22;;;;;;;12.93;2.88;;;;;;;;;;5072692;28;20070;-65
2022/05/18 03:35:48;;;;;;;9.60;1.90;;;;;;;;;;5072432;28;20029;-65
2022/05/18 03:38:15;;;;;;;8.88;2.30;;;;;;;;;;5072523;28;20032;-65
2022/05/18 03:40:41;;;;;;;8.38;2.53;;;;;;;;;;5072435;28;20123;-65
2022/05/18 03:43:07;;;;;;;10.00;2.13;;;;;;;;;;5072278;28;20067;-65
2022/05/18 03:45:33;;;;;;;11.45;2.03;;;;;;;;;;5072149;28;20047;-65
2022/05/18 03:48:00;;;;;;;11.32;2.00;;;;;;;;;;5072272;28;20374;-65
2022/05/18 03:50:30;;;;;;;9.88;2.58;;;;;;;;;;5072626;28;20119;-65
2022/05/18 03:52:56;;;;;;;5.35;1.90;;;;;;;;;;5071675;28;20032;-65
2022/05/18 03:55:22;;;;;;;9.63;2.40;;;;;;;;;;5072328;28;20404;-65
2022/05/18 03:57:48;;;;;;;12.20;1.70;;;;;;;;;;5072037;28;20063;-65
2022/05/18 04:00:15;;;;;;;10.30;2.25;;;;;;;;;;5071931;28;20577;-65
2022/05/18 04:02:42;;;;;;;5.22;1.75;;;;;;;;;;5072575;28;20028;-65
2022/05/18 04:05:09;;;;;;;8.73;1.92;;;;;;;;;;5072281;28;20090;-65
2022/05/18 04:07:35;;;;;;;7.28;1.65;;;;;;;;;;5072080;28;20020;-65
2022/05/18 04:10:02;;;;;;;9.27;2.05;;;;;;;;;;5071942;28;20020;-65
2022/05/18 04:12:28;;;;;;;18.13;2.65;;;;;;;;;;5072414;28;20025;-65
2022/05/18 04:14:54;;;;;;;9.80;2.22;;;;;;;;;;5071525;28;20108;-65
2022/05/18 04:17:25;;;;;;;9.45;2.42;;;;;;;;;;5072140;28;20036;-65
2022/05/18 04:19:52;;;;;;;8.73;3.35;;;;;;;;;;5071826;28;20227;-65
2022/05/18 04:22:18;;;;;;;6.38;2.17;;;;;;;;;;5072252;28;20060;-65
2022/05/18 04:24:44;;;;;;;10.80;2.05;;;;;;;;;;5071895;28;20032;-65
2022/05/18 04:27:10;;;;;;;6.57;2.38;;;;;;;;;;5071859;28;20411;-65
2022/05/18 04:29:37;;;;;;;4.43;1.80;;;;;;;;;;5071647;28;20029;-65
2022/05/18 04:32:04;;;;;;;7.03;2.28;;;;;;;;;;5071762;28;20035;-65
2022/05/18 04:34:30;;;;;;;7.43;2.47;;;;;;;;;;5072164;28;20489;-65
2022/05/18 04:36:57;;;;;;;8.70;1.80;;;;;;;;;;5065944;28;20025;-65
2022/05/18 04:39:23;;;;;;;9.02;2.47;;;;;;;;;;5049461;28;20036;-65
2022/05/18 04:41:49;;;;;;;8.20;2.55;;;;;;;;;;5051161;28;20029;-65
2022/05/18 04:44:15;;;;;;;7.07;2.08;;;;;;;;;;5051724;28;20025;-64
2022/05/18 04:46:41;;;;;;;11.02;2.20;;;;;;;;;;5051463;28;20153;-65
2022/05/18 04:49:08;;;;;;;12.70;2.05;;;;;;;;;;5051378;28;20029;-71
2022/05/18 04:51:34;;;;;;;10.10;2.00;;;;;;;;;;5046190;28;20022;-65
2022/05/18 04:54:00;;;;;;;13.25;2.00;;;;;;;;;;5037785;28;20021;-64
2022/05/18 04:56:26;;;;;;;10.02;3.25;;;;;;;;;;5049734;28;20041;-64
2022/05/18 04:58:53;;;;;;;10.30;2.33;;;;;;;;;;5049945;28;20041;-64
2022/05/18 05:01:19;;;;;;;7.43;3.17;;;;;;;;;;5050259;28;20029;-64
2022/05/18 05:03:46;;;;;;;12.60;2.47;;;;;;;;;;5053069;28;20519;-64
2022/05/18 05:06:12;;;;;;;12.88;3.00;;;;;;;;;;5051917;28;20017;-64
2022/05/18 05:08:39;;;;;;;10.20;2.55;;;;;;;;;;5057349;28;20032;-64
2022/05/18 05:11:06;;;;;;;6.85;2.47;;;;;;;;;;5055451;28;20107;-65
2022/05/18 05:13:33;;;;;;;11.90;2.83;;;;;;;;;;5053932;28;20404;-64
2022/05/18 05:16:06;;;;;;;7.55;2.40;;;;;;;;;;5053122;28;20028;-64
2022/05/18 05:18:33;;;;;;;8.10;3.47;;;;;;;;;;5053570;28;20036;-64
2022/05/18 05:20:59;;;;;;;9.20;2.53;;;;;;;;;;5051850;28;20116;-65
2022/05/18 05:23:26;;;;;;;8.02;2.50;;;;;;;;;;5043752;28;20033;-65
2022/05/18 05:25:52;;;;;;;6.22;2.10;;;;;;;;;;5054815;28;20095;-64
2022/05/18 05:28:19;;;;;;;4.32;2.10;;;;;;;;;;5053898;28;20029;-64
2022/05/18 05:30:46;;;;;;;11.93;2.47;;;;;;;;;;5045328;28;20169;-64
2022/05/18 05:33:12;;;;;;;12.20;2.22;;;;;;;;;;5063206;28;20047;-65
2022/05/18 05:35:41;;;;;;;18.38;4.63;;;;;;;;;;5054529;28;20033;-64
2022/05/18 05:38:11;;;;;;;8.05;2.55;;;;;;;;;;5053587;28;20041;-64
2022/05/18 05:40:38;;;;;;;11.88;3.20;;;;;;;;;;5053590;28;20029;-64
2022/05/18 05:43:08;;;;;;;7.15;2.50;;;;;;;;;;5051420;28;20473;-64
2022/05/18 05:45:34;;;;;;;11.65;2.92;;;;;;;;;;5042214;28;20029;-64
2022/05/18 05:48:01;;;;;;;9.05;2.95;;;;;;;;;;5054653;28;20021;-64
2022/05/18 05:50:27;;;;;;;9.40;2.78;;;;;;;;;;5054100;28;20366;-64
2022/05/18 05:52:54;;;;;;;8.43;2.92;;;;;;;;;;5053097;28;20028;-64
2022/05/18 05:55:20;;;;;;;10.60;4.10;;;;;;;;;;5053754;28;20182;-64
2022/05/18 05:57:46;;;;;;;18.88;3.13;;;;;;;;;;5051526;28;20066;-64
2022/05/18 06:00:13;;;;;;;9.48;3.50;;;;;;;;;;5051538;28;20383;-63
2022/05/18 06:02:39;;;;;;;12.43;2.92;;;;;;;;;;5057145;28;20017;-63
2022/05/18 06:05:05;;;;;;;13.98;3.33;;;;;;;;;;5053933;28;20025;-63
2022/05/18 06:07:32;;;;;;;12.48;3.40;;;;;;;;;;5054020;28;20115;-63
2022/05/18 06:09:58;;;;;;;8.48;3.15;;;;;;;;;;5058317;28;20028;-63
2022/05/18 06:12:25;;;;;;;13.70;3.30;;;;;;;;;;5061839;28;20010;-63
2022/05/18 06:14:51;;;;;;;15.32;3.75;;;;;;;;;;5058251;28;20064;-63
2022/05/18 06:17:17;;;;;;;12.07;3.70;;;;;;;;;;5055680;28;20060;-63
2022/05/18 06:19:43;;;;;;;22.88;4.00;;;;;;;;;;5052725;28;20063;-63
2022/05/18 06:22:10;;;;;;;12.45;3.72;;;;;;;;;;5052511;28;20021;-63
2022/05/18 06:24:36;;;;;;;13.77;3.80;;;;;;;;;;5052221;28;20033;-63
2022/05/18 06:27:03;;;;;;;17.15;5.03;;;;;;;;;;5055523;28;20082;-63
2022/05/18 06:29:29;;;;;;;17.65;5.15;;;;;;;;;;5042227;28;20120;-63
2022/05/18 06:31:56;;;;;;;22.15;4.95;;;;;;;;;;5041362;28;20017;-64
2022/05/18 06:34:22;;;;;;;14.30;4.75;;;;;;;;;;5053270;28;20086;-64
2022/05/18 06:36:51;;;;;;;13.43;4.65;;;;;;;;;;5053261;28;20029;-64
2022/05/18 06:39:18;;;;;;;19.63;4.43;;;;;;;;;;5049394;28;20043;-63
2022/05/18 06:41:46;;;;;;;20.85;3.60;;;;;;;;;;5043124;28;20041;-63
2022/05/18 06:44:12;;;;;;;15.68;4.47;;;;;;;;;;5046045;28;20037;-63
2022/05/18 06:46:38;;;;;;;15.65;3.85;;;;;;;;;;5049755;28;20060;-63
2022/05/18 06:49:06;;;;;;;18.55;3.92;;;;;;;;;;5052375;28;20021;-63
2022/05/18 06:51:33;;;;;;;16.40;4.18;;;;;;;;;;5050928;28;20033;-63
2022/05/18 06:53:59;;;;;;;9.45;3.85;;;;;;;;;;5046883;28;20033;-64
2022/05/18 06:56:28;;;;;;;17.63;5.13;;;;;;;;;;5042547;28;20041;-63
2022/05/18 06:58:54;;;;;;;18.55;5.00;;;;;;;;;;5049956;28;20081;-64
2022/05/18 07:01:21;;;;;;;11.65;3.85;;;;;;;;;;5049012;28;20036;-64
2022/05/18 07:03:47;;;;;;;16.52;3.72;;;;;;;;;;5052036;28;20028;-64
2022/05/18 07:06:15;;;;;;;12.70;4.03;;;;;;;;;;5050598;28;20106;-64
2022/05/18 07:08:41;;;;;;;16.25;4.32;;;;;;;;;;5053493;28;20021;-64
2022/05/18 07:11:07;;;;;;;10.82;3.92;;;;;;;;;;5045079;28;20371;-64
2022/05/18 07:13:38;;;;;;;17.33;4.30;;;;;;;;;;5050219;28;21284;-64
2022/05/18 07:16:05;;;;;;;17.23;4.72;;;;;;;;;;5051220;28;20059;-64
2022/05/18 07:18:32;;;;;;;14.98;4.32;;;;;;;;;;5050573;28;20017;-64
2022/05/18 07:20:59;;;;;;;24.10;4.32;;;;;;;;;;5054023;28;20448;-64
2022/05/18 07:23:25;;;;;;;17.70;4.72;;;;;;;;;;5046783;28;20580;-64
2022/05/18 07:25:52;;;;;;;17.67;4.68;;;;;;;;;;5051493;28;20022;-64
2022/05/18 07:28:18;;;;;;;23.23;5.00;;;;;;;;;;5056940;28;20071;-64
2022/05/18 07:30:44;;;;;;;13.57;4.47;;;;;;;;;;5051001;28;20035;-64
2022/05/18 07:33:10;;;;;;;11.25;3.88;;;;;;;;;;5048221;28;20115;-64
2022/05/18 07:35:37;;;;;;;21.50;5.22;;;;;;;;;;5050254;28;20082;-64
2022/05/18 07:38:03;;;;;;;21.35;4.70;;;;;;;;;;5056085;28;20398;-64
2022/05/18 07:40:29;;;;;;;18.10;4.43;;;;;;;;;;5045569;28;20512;-64
2022/05/18 07:42:57;;;;;;;16.25;4.07;;;;;;;;;;5051448;28;20480;-64
2022/05/18 07:45:25;;;;;;;14.98;3.50;;;;;;;;;;5048705;28;20029;-64
2022/05/18 07:47:53;;;;;;;19.67;4.15;;;;;;;;;;5048335;28;20028;-64
2022/05/18 07:50:21;;;;;;;13.10;4.20;;;;;;;;;;5053298;28;20408;-64
2022/05/18 07:52:47;;;;;;;16.13;4.10;;;;;;;;;;5050471;28;20031;-64
2022/05/18 07:55:13;;;;;;;16.10;3.85;;;;;;;;;;5049542;28;20029;-64
2022/05/18 07:57:39;;;;;;;21.50;3.97;;;;;;;;;;5044680;28;20056;-64
2022/05/18 08:00:06;;;;;;;17.75;3.90;;;;;;;;;;5045824;28;20166;-67
2022/05/18 08:02:37;;;;;;;20.67;4.05;;;;;;;;;;5058872;28;20037;-64
2022/05/18 08:05:04;;;;;;;13.30;4.15;;;;;;;;;;5048762;28;20059;-65
2022/05/18 08:07:30;;;;;;;11.90;3.58;;;;;;;;;;5048421;28;20025;-65
2022/05/18 08:15:26;;;;;;;8.85;3.50;;;;;;;;;;5053126;28;20390;-65
2022/05/18 08:17:52;;;;;;;13.93;3.60;;;;;;;;;;5054435;28;20579;-65
2022/05/18 08:20:20;;;;;;;17.50;3.60;;;;;;;;;;5058079;28;20025;-65
2022/05/18 08:22:47;;;;;;;10.70;4.60;;;;;;;;;;5046772;28;20037;-65
2022/05/18 08:25:13;;;;;;;14.55;3.63;;;;;;;;;;5048824;28;20057;-65
2022/05/18 08:27:43;;;;;;;9.57;3.33;;;;;;;;;;5051207;28;20118;-65
2022/05/18 08:30:10;;;;;;;15.10;3.60;;;;;;;;;;5038642;28;20028;-65
2022/05/18 08:32:36;;;;;;;22.25;4.68;;;;;;;;;;5041280;28;20033;-65
2022/05/18 08:35:03;;;;;;;12.27;4.40;;;;;;;;;;5056098;28;20123;-65
2022/05/18 08:37:29;;;;;;;18.48;3.75;;;;;;;;;;5047622;28;20445;-65
2022/05/18 08:39:55;;;;;;;17.67;3.90;;;;;;;;;;5060250;28;20025;-65
2022/05/18 08:42:22;;;;;;;14.52;3.95;;;;;;;;;;5060966;28;20241;-65
2022/05/18 08:44:50;;;;;;;16.83;3.70;;;;;;;;;;5048915;28;20025;-65
2022/05/18 08:47:19;;;;;;;14.27;3.60;;;;;;;;;;5050765;28;20067;-65
2022/05/18 08:49:56;;;;;;;12.10;3.10;;;;;;;;;;5042694;28;20025;-65
2022/05/18 08:52:38;;;;;;;17.90;3.67;;;;;;;;;;5051887;28;20454;-65
2022/05/18 08:55:07;;;;;;;13.82;3.85;;;;;;;;;;5046561;28;20393;-65
2022/05/18 08:57:52;;;;;;;17.80;4.32;;;;;;;;;;5053306;28;20389;-65
2022/05/18 09:00:24;;;;;;;10.40;3.45;;;;;;;;;;5047387;28;20037;-65
2022/05/18 09:02:59;;;;;;;9.68;3.17;;;;;;;;;;5052274;28;20129;-65
2022/05/18 09:05:38;;;;;;;14.40;3.45;;;;;;;;;;5059093;28;20032;-65
2022/05/18 09:08:24;;;;;;;14.27;3.25;;;;;;;;;;5053008;28;20029;-65
2022/05/18 09:10:53;;;;;;;10.25;3.63;;;;;;;;;;5049438;28;20176;-65
2022/05/18 09:13:20;;;;;;;13.90;4.30;;;;;;;;;;5051070;28;20127;-65
2022/05/18 09:16:01;;;;;;;12.02;3.53;;;;;;;;;;5044492;28;20120;-65
2022/05/18 09:18:28;;;;;;;18.37;3.87;;;;;;;;;;5045554;28;20032;-65
2022/05/18 09:21:05;;;;;;;18.88;3.42;;;;;;;;;;5045918;28;20267;-65
2022/05/18 09:23:38;;;;;;;15.80;3.20;;;;;;;;;;5046710;28;20041;-65
2022/05/18 09:26:07;;;;;;;12.98;3.55;;;;;;;;;;5050802;28;20080;-65
2022/05/18 09:28:33;;;;;;;17.50;4.03;;;;;;;;;;5054263;28;20033;-65
2022/05/18 09:31:12;;;;;;;13.07;3.10;;;;;;;;;;5058745;28;20404;-65
2022/05/18 09:33:44;;;;;;;15.43;3.22;;;;;;;;;;5060400;28;20127;-65
2022/05/18 09:36:34;;;;;;;13.73;2.80;;;;;;;;;;5056269;28;20025;-65
2022/05/18 09:39:13;;;;;;;8.27;2.83;;;;;;;;;;5055987;28;20173;-65
2022/05/18 09:41:42;;;;;;;13.98;3.00;;;;;;;;;;5053676;28;20029;-65
2022/05/18 09:44:28;;;;;;;10.43;2.58;;;;;;;;;;5046445;28;20021;-65
2022/05/18 09:46:55;;;;;;;13.52;2.95;;;;;;;;;;5046101;28;20048;-65
2022/05/18 09:49:29;;;;;;;11.30;2.78;;;;;;;;;;5053811;28;20559;-65
2022/05/18 09:51:58;;;;;;;11.27;3.03;;;;;;;;;;5056249;28;20029;-65
2022/05/18 09:54:24;;;;;;;11.30;2.40;;;;;;;;;;5054064;28;20044;-65
2022/05/18 09:56:53;;;;;;;10.73;2.50;;;;;;;;;;5054503;28;20505;-65
2022/05/18 09:59:22;;;;;;;11.07;3.33;;;;;;;;;;5049813;28;20033;-65
2022/05/18 10:07:34;;;;;;;11.65;2.60;;;;;;;;;;5044110;28;20051;-65
2022/05/18 10:10:09;;;;;;;16.55;3.70;;;;;;;;;;5052492;28;20025;-65
2022/05/18 10:12:42;;;;;;;7.65;2.08;;;;;;;;;;5052380;28;20531;-65
2022/05/18 10:15:19;;;;;;;12.68;2.70;;;;;;;;;;5053185;28;20037;-65
2022/05/18 10:17:47;;;;;;;10.68;2.47;;;;;;;;;;5051789;28;20040;-65
2022/05/18 10:20:30;;;;;;;13.23;3.08;;;;;;;;;;5059372;28;20029;-65
2022/05/18 10:22:57;;;;;;;18.88;4.65;;;;;;;;;;5045663;28;20036;-65
2022/05/18 10:25:25;;;;;;;10.57;3.00;;;;;;;;;;5046238;28;20040;-65
2022/05/18 10:27:51;;;;;;;14.77;3.03;;;;;;;;;;5044673;28;20016;-65
2022/05/18 10:30:28;;;;;;;13.23;3.00;;;;;;;;;;5045049;28;20509;-65
2022/05/18 10:33:19;;;;;;;13.70;3.00;;;;;;;;;;5045527;28;20560;-65
2022/05/18 10:35:49;;;;;;;11.90;2.50;;;;;;;;;;5047236;28;20025;-65
2022/05/18 10:38:19;;;;;;;12.07;2.33;;;;;;;;;;5056181;28;20028;-65
2022/05/18 10:40:45;;;;;;;8.30;2.97;;;;;;;;;;5053666;28;20031;-65
2022/05/18 10:43:29;;;;;;;17.55;4.82;;;;;;;;;;5051015;28;20028;-65
2022/05/18 10:45:56;;;;;;;11.80;4.20;;;;;;;;;;5048251;28;20045;-65
2022/05/18 10:48:23;;;;;;;12.95;4.55;;;;;;;;;;5048670;28;20043;-65
2022/05/18 10:50:59;;;;;;;10.18;2.30;;;;;;;;;;5047937;28;20440;-65
2022/05/18 10:53:30;;;;;;;14.90;3.03;;;;;;;;;;5044342;28;20025;-65
2022/05/18 10:55:56;;;;;;;11.00;3.53;;;;;;;;;;5046621;28;20040;-65
2022/05/18 10:58:24;;;;;;;8.02;2.08;;;;;;;;;;5042390;28;20064;-65
2022/05/18 11:00:57;;;;;;;7.63;1.65;;;;;;;;;;5075779;28;20370;-65
2022/05/18 11:03:23;;;;;;;4.10;1.63;;;;;;;;;;5044031;28;20029;-66
2022/05/18 11:05:52;;;;;;;8.88;1.95;;;;;;;;;;5048801;28;20114;-66
2022/05/18 11:08:20;;;;;;;12.40;2.30;;;;;;;;;;5049556;28;20026;-66
2022/05/18 11:11:05;;;;;;;6.32;2.10;;;;;;;;;;5057560;28;20481;-66
2022/05/18 11:13:41;;;;;;;8.70;3.17;;;;;;;;;;5051702;28;20488;-66
2022/05/18 11:16:23;;;;;;;9.93;2.22;;;;;;;;;;5053521;28;20090;-66
2022/05/18 11:18:58;;;;;;;11.13;2.25;;;;;;;;;;5052493;28;20028;-66
2022/05/18 11:21:33;;;;;;;10.27;2.10;;;;;;;;;;5050712;28;20041;-66
2022/05/18 11:24:06;;;;;;;9.73;2.47;;;;;;;;;;5047348;28;20170;-66
2022/05/18 11:26:41;;;;;;;8.07;1.90;;;;;;;;;;5050641;28;20028;-66
2022/05/18 11:29:12;;;;;;;12.27;2.33;;;;;;;;;;5045371;28;20052;-66
2022/05/18 11:31:41;;;;;;;11.95;2.05;;;;;;;;;;5040847;28;20044;-66
2022/05/18 11:34:13;;;;;;;12.27;2.05;;;;;;;;;;5042648;28;20105;-66
2022/05/18 11:36:52;;;;;;;7.30;1.88;;;;;;;;;;5043991;28;20441;-65
2022/05/18 11:39:20;;;;;;;12.30;1.70;;;;;;;;;;5046174;28;20071;-65
2022/05/18 11:41:47;;;;;;;12.00;2.13;;;;;;;;;;5046026;28;20063;-65
2022/05/18 11:44:27;;;;;;;7.45;1.75;;;;;;;;;;5044261;28;20029;-65
2022/05/18 11:46:53;;;;;;;10.48;2.00;;;;;;;;;;5042134;28;20025;-65
2022/05/18 11:49:20;;;;;;;11.00;2.40;;;;;;;;;;5051820;28;20397;-63
2022/05/18 11:51:58;;;;;;;9.38;1.50;;;;;;;;;;5046518;28;20028;-64
2022/05/18 11:54:33;;;;;;;9.52;1.67;;;;;;;;;;5047854;28;20025;-65
2022/05/18 11:57:03;;;;;;;8.30;1.70;;;;;;;;;;5041796;28;20131;-65
2022/05/18 11:59:53;;;;;;;11.20;2.45;;;;;;;;;;5052902;28;20060;-65
2022/05/18 12:02:20;;;;;;;13.98;2.13;;;;;;;;;;5043831;28;20029;-65
2022/05/18 12:05:01;;;;;;;10.38;1.90;;;;;;;;;;5044187;28;20065;-65
2022/05/18 12:07:39;;;;;;;5.55;1.60;;;;;;;;;;5045386;28;20029;-65
2022/05/18 12:10:08;;;;;;;5.75;1.55;;;;;;;;;;5049180;28;20021;-65
2022/05/18 12:12:49;;;;;;;5.72;1.80;;;;;;;;;;5046280;28;20048;-65
2022/05/18 12:15:18;;;;;;;7.78;2.00;;;;;;;;;;5044129;28;20029;-65
2022/05/18 12:17:50;;;;;;;7.25;1.52;;;;;;;;;;5041632;28;20083;-65
2022/05/18 12:20:26;;;;;;;5.32;2.13;;;;;;;;;;5045373;28;20460;-65
2022/05/18 12:22:54;;;;;;;6.63;1.42;;;;;;;;;;5046330;28;20017;-65
2022/05/18 12:25:22;;;;;;;6.93;1.40;;;;;;;;;;5048659;28;20033;-65
2022/05/18 12:27:49;;;;;;;7.78;1.40;;;;;;;;;;5044671;28;20083;-65
2022/05/18 12:30:17;;;;;;;7.13;1.05;;;;;;;;;;5044257;28;20024;-65
2022/05/18 12:32:44;;;;;;;4.82;1.20;;;;;;;;;;5046160;28;20071;-65
2022/05/18 12:35:13;;;;;;;9.90;1.55;;;;;;;;;;5041331;28;20037;-65
2022/05/18 12:37:58;;;;;;;4.88;1.15;;;;;;;;;;5044526;28;20056;-65
2022/05/18 12:40:30;;;;;;;4.45;1.30;;;;;;;;;;5041200;28;20025;-65
2022/05/18 12:42:58;;;;;;;6.80;1.50;;;;;;;;;;5042573;28;20482;-65
2022/05/18 12:45:27;;;;;;;3.28;1.20;;;;;;;;;;5044366;28;20045;-65
2022/05/18 12:48:07;;;;;;;7.38;1.58;;;;;;;;;;5037534;28;20020;-65
2022/05/18 12:50:41;;;;;;;5.93;1.83;;;;;;;;;;5042388;28;20025;-65
2022/05/18 12:53:33;;;;;;;3.38;1.20;;;;;;;;;;5044321;28;20098;-65
2022/05/18 12:56:04;;;;;;;7.28;1.73;;;;;;;;;;5044356;28;20037;-65
2022/05/18 12:58:38;;;;;;;5.53;1.20;;;;;;;;;;5047087;28;20040;-65
2022/05/18 13:01:04;;;;;;;2.15;0.88;;;;;;;;;;5046937;28;20116;-65
2022/05/18 13:03:41;;;;;;;1.98;0.95;;;;;;;;;;5041594;28;20503;-65
2022/05/18 13:06:12;;;;;;;4.82;1.20;;;;;;;;;;5047155;28;20040;-65
2022/05/18 13:08:38;;;;;;;5.95;1.20;;;;;;;;;;5043688;28;20451;-65
2022/05/18 13:11:07;;;;;;;2.10;1.00;;;;;;;;;;5045501;28;20048;-64
2022/05/18 13:13:52;;;;;;;6.10;1.13;;;;;;;;;;5046845;28;20149;-64
2022/05/18 13:16:18;;;;;;;3.25;0.95;;;;;;;;;;5049332;28;20032;-65
2022/05/18 13:18:44;;;;;;;5.07;1.30;;;;;;;;;;5046447;28;20044;-65
2022/05/18 13:21:10;;;;;;;5.25;0.98;;;;;;;;;;5043656;28;20892;-65
2022/05/18 13:23:40;;;;;;;4.15;1.02;;;;;;;;;;5042961;28;20489;-65
2022/05/18 13:26:25;;;;;;;7.40;1.02;;;;;;;;;;5042975;28;20021;-65
2022/05/18 13:28:53;;;;;;;3.10;1.05;;;;;;;;;;5050121;28;20127;-65
2022/05/18 13:31:20;;;;;;;6.60;1.30;;;;;;;;;;5048988;28;20052;-65
2022/05/18 13:33:57;;;;;;;3.30;1.10;;;;;;;;;;5044677;28;20166;-65
2022/05/18 13:36:35;;;;;;;3.63;0.85;;;;;;;;;;5047139;28;20060;-65
2022/05/18 13:39:03;;;;;;;6.07;1.20;;;;;;;;;;5049908;28;20052;-65
2022/05/18 13:41:31;;;;;;;10.55;1.27;;;;;;;;;;5054052;28;20021;-65
2022/05/18 13:44:02;;;;;;;4.47;0.90;;;;;;;;;;5051202;28;20021;-65
2022/05/18 13:46:29;;;;;;;1.92;0.80;;;;;;;;;;5044443;28;20026;-65
2022/05/18 13:49:01;;;;;;;3.33;1.23;;;;;;;;;;5040970;28;20024;-65
2022/05/18 13:51:27;;;;;;;;;;;;;;;;;;5052248;28;20108;-65
2022/05/18 13:54:02;;;;;;;3.50;1.10;;;;;;;;;;5048775;28;20000;-65
2022/05/18 13:56:31;;;;;;;5.60;0.90;;;;;;;;;;5045264;28;20131;-65
2022/05/18 13:59:02;;;;;;;1.23;0.70;;;;;;;;;;5050209;28;20492;-65
2022/05/18 14:01:33;;;;;;;2.35;0.60;;;;;;;;;;5047293;28;20028;-65
2022/05/18 14:03:59;;;;;;;2.80;1.15;;;;;;;;;;5050071;28;20087;-65
2022/05/18 14:06:26;;;;;;;4.13;1.05;;;;;;;;;;5036890;28;20425;-65
2022/05/18 14:08:58;;;;;;;8.20;0.95;;;;;;;;;;5046625;28;20021;-65
2022/05/18 14:11:26;;;;;;;6.07;1.30;;;;;;;;;;5037188;28;20397;-65
2022/05/18 14:13:52;;;;;;;1.77;0.77;;;;;;;;;;5042857;28;20032;-65
2022/05/18 14:16:28;;;;;;;4.75;1.00;;;;;;;;;;5048345;28;20025;-65
2022/05/18 14:18:55;;;;;;;3.72;1.00;;;;;;;;;;5048374;28;20507;-65
2022/05/18 14:21:22;;;;;;;2.83;0.82;;;;;;;;;;5052089;28;20053;-65
2022/05/18 14:23:52;;;;;;;4.85;0.93;;;;;;;;;;5052158;28;20032;-65
2022/05/18 14:26:25;;;;;;;5.07;0.90;;;;;;;;;;5047258;28;20154;-65
2022/05/18 14:28:53;;;;;;;7.30;1.55;;;;;;;;;;5044582;28;20494;-65
2022/05/18 14:31:22;;;;;;;5.43;1.42;;;;;;;;;;5051659;28;20389;-65
2022/05/18 14:33:53;;;;;;;4.68;1.25;;;;;;;;;;5051018;28;20104;-65
2022/05/18 14:36:36;;;;;;;4.10;1.15;;;;;;;;;;5043305;28;20025;-65
2022/05/18 14:39:05;;;;;;;3.00;0.90;;;;;;;;;;5071051;28;20033;-65
2022/05/18 14:41:35;;;;;;;3.33;0.90;;;;;;;;;;5051012;28;20025;-65
2022/05/18 14:44:01;;;;;;;5.78;1.33;;;;;;;;;;5042276;28;20029;-65
2022/05/18 14:46:29;;;;;;;2.90;1.10;;;;;;;;;;5046078;28;20025;-65
2022/05/18 14:49:05;;;;;;;3.80;0.85;;;;;;;;;;5049735;28;20029;-65
2022/05/18 14:51:31;;;;;;;4.88;1.08;;;;;;;;;;5050431;28;20037;-65
2022/05/18 14:53:59;;;;;;;3.00;1.05;;;;;;;;;;5039155;28;20025;-65
2022/05/18 14:56:29;;;;;;;3.92;0.82;;;;;;;;;;5049723;28;20048;-65
2022/05/18 14:58:56;;;;;;;16.95;1.40;;;;;;;;;;5045420;28;20028;-65
2022/05/18 15:01:25;;;;;;;4.40;1.05;;;;;;;;;;5044798;28;20048;-65
2022/05/18 15:03:51;;;;;;;1.85;0.60;;;;;;;;;;5047922;28;20040;-65